Granby, Colorado
Current Conditions -  °F | °C
As of 1:35 AM on Monday 26 Jan 2015 (Local Time) from K0CO Reporting Station
Clear Clear  
Wind Chill: -16°   Ceiling: Unl
Heat Index: -7°   Visibility: NA
Dew Point: -10°   Wind: 18mph
Humidity: 80%   Direction: 330°NNW
Pressure: 30.5"   Gusts: 24mph
Location:  40.09°N, 105.94°W
Report Text: K0CO 260835Z AUTO 33016G21KT CLR M07/M10 A3050 RMK AO2 PWINO
Loading
Personal Weather Stations






























Interactive Weather Map New forecast layout! Learn more

10-Day Weather Forecast

Advertisements
Track Severe Weather on mobile